sensor_id;sensor_type;location;lat;lon;timestamp;pressure;altitude;pressure_sealevel;temperature;humidity
58295;BME280;45705;55.592;37.460;2023-10-13T00:00:10;97774.44;;;8.57;100.00
58295;BME280;45705;55.592;37.460;2023-10-13T00:02:51;97774.00;;;8.55;100.00
58295;BME280;45705;55.592;37.460;2023-10-13T00:05:18;97772.38;;;8.54;100.00
58295;BME280;45705;55.592;37.460;2023-10-13T00:07:43;97777.53;;;8.47;100.00
58295;BME280;45705;55.592;37.460;2023-10-13T00:10:09;97785.31;;;8.48;100.00
58295;BME280;45705;55.592;37.460;2023-10-13T00:12:35;97779.19;;;8.60;100.00
58295;BME280;45705;55.592;37.460;2023-10-13T00:15:03;97783.75;;;8.39;100.00
58295;BME280;45705;55.592;37.460;2023-10-13T00:17:30;97788.25;;;8.43;100.00
58295;BME280;45705;55.592;37.460;2023-10-13T00:19:57;97786.19;;;8.32;100.00
58295;BME280;45705;55.592;37.460;2023-10-13T00:22:25;97790.03;;;8.31;100.00
58295;BME280;45705;55.592;37.460;2023-10-13T00:24:52;97780.75;;;8.32;100.00
58295;BME280;45705;55.592;37.460;2023-10-13T00:27:24;97791.47;;;8.28;100.00
58295;BME280;45705;55.592;37.460;2023-10-13T00:32:43;97789.72;;;8.23;100.00
58295;BME280;45705;55.592;37.460;2023-10-13T00:35:10;97792.09;;;8.34;100.00
58295;BME280;45705;55.592;37.460;2023-10-13T00:37:58;97803.09;;;8.28;100.00
58295;BME280;45705;55.592;37.460;2023-10-13T00:40:29;97802.16;;;8.24;100.00
58295;BME280;45705;55.592;37.460;2023-10-13T00:42:55;97794.06;;;8.16;100.00
58295;BME280;45705;55.592;37.460;2023-10-13T00:45:30;97799.00;;;8.22;100.00
58295;BME280;45705;55.592;37.460;2023-10-13T00:47:59;97809.28;;;8.38;100.00
58295;BME280;45705;55.592;37.460;2023-10-13T00:50:26;97808.50;;;8.28;100.00
58295;BME280;45705;55.592;37.460;2023-10-13T00:52:52;97802.81;;;8.21;100.00
58295;BME280;45705;55.592;37.460;2023-10-13T00:55:19;97805.03;;;8.19;100.00
58295;BME280;45705;55.592;37.460;2023-10-13T00:57:53;97804.03;;;8.33;100.00
58295;BME280;45705;55.592;37.460;2023-10-13T01:00:22;97810.94;;;8.21;100.00
58295;BME280;45705;55.592;37.460;2023-10-13T01:02:53;97812.31;;;8.27;100.00
58295;BME280;45705;55.592;37.460;2023-10-13T01:05:25;97809.69;;;8.10;100.00
58295;BME280;45705;55.592;37.460;2023-10-13T01:07:51;97816.53;;;8.16;100.00
58295;BME280;45705;55.592;37.460;2023-10-13T01:10:22;97812.22;;;8.24;100.00
58295;BME280;45705;55.592;37.460;2023-10-13T01:12:57;97811.69;;;8.31;100.00
58295;BME280;45705;55.592;37.460;2023-10-13T01:15:24;97810.59;;;8.23;100.00
58295;BME280;45705;55.592;37.460;2023-10-13T01:18:05;97814.22;;;8.36;100.00
58295;BME280;45705;55.592;37.460;2023-10-13T01:20:37;97816.63;;;8.28;100.00
58295;BME280;45705;55.592;37.460;2023-10-13T01:23:12;97819.28;;;8.46;100.00
58295;BME280;45705;55.592;37.460;2023-10-13T01:25:44;97812.72;;;8.47;100.00
58295;BME280;45705;55.592;37.460;2023-10-13T01:28:10;97818.19;;;8.38;100.00
58295;BME280;45705;55.592;37.460;2023-10-13T01:30:41;97821.16;;;8.54;100.00
58295;BME280;45705;55.592;37.460;2023-10-13T01:33:07;97822.06;;;8.58;100.00
58295;BME280;45705;55.592;37.460;2023-10-13T01:35:34;97826.94;;;8.44;100.00
58295;BME280;45705;55.592;37.460;2023-10-13T01:38:07;97830.72;;;8.52;100.00
58295;BME280;45705;55.592;37.460;2023-10-13T01:40:33;97835.53;;;8.46;100.00
58295;BME280;45705;55.592;37.460;2023-10-13T01:43:00;97830.13;;;8.46;100.00
58295;BME280;45705;55.592;37.460;2023-10-13T01:45:25;97835.41;;;8.42;100.00
58295;BME280;45705;55.592;37.460;2023-10-13T01:47:56;97837.31;;;8.33;100.00
58295;BME280;45705;55.592;37.460;2023-10-13T01:50:22;97838.38;;;8.41;100.00
58295;BME280;45705;55.592;37.460;2023-10-13T01:52:55;97837.47;;;8.45;100.00
58295;BME280;45705;55.592;37.460;2023-10-13T01:55:42;97835.16;;;8.56;100.00
58295;BME280;45705;55.592;37.460;2023-10-13T01:58:10;97850.47;;;8.52;100.00
58295;BME280;45705;55.592;37.460;2023-10-13T02:00:41;97845.06;;;8.52;100.00
58295;BME280;45705;55.592;37.460;2023-10-13T02:03:08;97840.34;;;8.32;100.00
58295;BME280;45705;55.592;37.460;2023-10-13T02:05:46;97854.38;;;8.34;100.00
58295;BME280;45705;55.592;37.460;2023-10-13T02:08:20;97849.31;;;8.23;100.00
58295;BME280;45705;55.592;37.460;2023-10-13T02:10:49;97851.69;;;8.25;100.00
58295;BME280;45705;55.592;37.460;2023-10-13T02:13:16;97851.16;;;8.32;100.00
58295;BME280;45705;55.592;37.460;2023-10-13T02:15:43;97857.34;;;8.41;100.00
58295;BME280;45705;55.592;37.460;2023-10-13T02:18:10;97867.28;;;8.28;100.00
58295;BME280;45705;55.592;37.460;2023-10-13T02:20:35;97866.44;;;8.45;100.00
58295;BME280;45705;55.592;37.460;2023-10-13T02:23:07;97867.19;;;8.54;100.00
58295;BME280;45705;55.592;37.460;2023-10-13T02:25:35;97867.66;;;8.56;100.00
58295;BME280;45705;55.592;37.460;2023-10-13T02:28:08;97867.03;;;8.59;100.00
58295;BME280;45705;55.592;37.460;2023-10-13T02:30:38;97862.53;;;8.63;100.00
58295;BME280;45705;55.592;37.460;2023-10-13T02:33:04;97873.75;;;8.53;100.00
58295;BME280;45705;55.592;37.460;2023-10-13T02:35:31;97874.69;;;8.57;100.00
58295;BME280;45705;55.592;37.460;2023-10-13T02:38:09;97864.78;;;8.61;100.00
58295;BME280;45705;55.592;37.460;2023-10-13T02:40:40;97878.22;;;8.49;100.00
58295;BME280;45705;55.592;37.460;2023-10-13T02:43:13;97875.47;;;8.58;100.00
58295;BME280;45705;55.592;37.460;2023-10-13T02:45:39;97883.00;;;8.52;100.00
58295;BME280;45705;55.592;37.460;2023-10-13T02:48:07;97882.88;;;8.40;100.00
58295;BME280;45705;55.592;37.460;2023-10-13T02:50:42;97882.56;;;8.33;100.00
58295;BME280;45705;55.592;37.460;2023-10-13T02:53:11;97886.22;;;8.37;100.00
58295;BME280;45705;55.592;37.460;2023-10-13T02:55:52;97885.63;;;8.22;100.00
58295;BME280;45705;55.592;37.460;2023-10-13T02:58:18;97885.56;;;8.40;100.00
58295;BME280;45705;55.592;37.460;2023-10-13T03:00:45;97883.06;;;8.26;100.00
58295;BME280;45705;55.592;37.460;2023-10-13T03:03:11;97897.41;;;8.26;100.00
58295;BME280;45705;55.592;37.460;2023-10-13T03:05:40;97893.91;;;8.17;100.00
58295;BME280;45705;55.592;37.460;2023-10-13T03:08:07;97907.97;;;8.11;100.00
58295;BME280;45705;55.592;37.460;2023-10-13T03:10:34;97915.78;;;7.95;100.00
58295;BME280;45705;55.592;37.460;2023-10-13T03:13:05;97918.44;;;8.12;100.00
58295;BME280;45705;55.592;37.460;2023-10-13T03:15:33;97924.97;;;8.20;100.00
58295;BME280;45705;55.592;37.460;2023-10-13T03:18:01;97912.50;;;8.27;100.00
58295;BME280;45705;55.592;37.460;2023-10-13T03:20:26;97917.13;;;8.36;100.00
58295;BME280;45705;55.592;37.460;2023-10-13T03:22:58;97913.34;;;8.28;100.00
58295;BME280;45705;55.592;37.460;2023-10-13T03:25:24;97919.88;;;8.18;100.00
58295;BME280;45705;55.592;37.460;2023-10-13T03:28:02;97920.00;;;8.31;100.00
58295;BME280;45705;55.592;37.460;2023-10-13T03:30:30;97924.28;;;8.40;100.00
58295;BME280;45705;55.592;37.460;2023-10-13T03:33:07;97924.78;;;8.42;100.00
58295;BME280;45705;55.592;37.460;2023-10-13T03:35:51;97926.97;;;8.40;100.00
58295;BME280;45705;55.592;37.460;2023-10-13T03:38:19;97915.75;;;8.12;100.00
58295;BME280;45705;55.592;37.460;2023-10-13T03:40:49;97923.38;;;8.19;100.00
58295;BME280;45705;55.592;37.460;2023-10-13T03:43:22;97939.81;;;8.05;100.00
58295;BME280;45705;55.592;37.460;2023-10-13T03:45:48;97929.47;;;8.07;100.00
58295;BME280;45705;55.592;37.460;2023-10-13T03:48:18;97942.34;;;8.10;100.00
58295;BME280;45705;55.592;37.460;2023-10-13T03:50:49;97939.47;;;8.15;100.00
58295;BME280;45705;55.592;37.460;2023-10-13T03:53:36;97952.19;;;8.23;100.00
58295;BME280;45705;55.592;37.460;2023-10-13T03:56:18;97948.88;;;8.00;100.00
58295;BME280;45705;55.592;37.460;2023-10-13T03:58:52;97964.94;;;8.14;100.00
58295;BME280;45705;55.592;37.460;2023-10-13T04:01:22;97968.47;;;8.06;100.00
58295;BME280;45705;55.592;37.460;2023-10-13T04:04:00;97973.59;;;7.81;100.00
58295;BME280;45705;55.592;37.460;2023-10-13T04:06:32;97985.19;;;7.91;100.00
58295;BME280;45705;55.592;37.460;2023-10-13T04:09:23;97975.50;;;8.07;100.00
58295;BME280;45705;55.592;37.460;2023-10-13T04:11:58;97989.97;;;7.85;100.00
58295;BME280;45705;55.592;37.460;2023-10-13T04:14:28;98002.09;;;7.87;100.00
58295;BME280;45705;55.592;37.460;2023-10-13T04:17:12;98001.88;;;8.27;100.00
58295;BME280;45705;55.592;37.460;2023-10-13T04:19:41;98001.59;;;8.20;100.00
58295;BME280;45705;55.592;37.460;2023-10-13T04:22:25;98012.41;;;8.20;100.00
58295;BME280;45705;55.592;37.460;2023-10-13T04:25:17;98014.91;;;8.60;100.00
58295;BME280;45705;55.592;37.460;2023-10-13T04:28:04;98017.44;;;8.65;100.00
58295;BME280;45705;55.592;37.460;2023-10-13T04:33:28;98018.91;;;9.01;100.00
58295;BME280;45705;55.592;37.460;2023-10-13T04:38:47;98032.19;;;9.33;100.00
58295;BME280;45705;55.592;37.460;2023-10-13T04:41:29;98033.88;;;9.67;99.36
58295;BME280;45705;55.592;37.460;2023-10-13T04:44:07;98038.06;;;9.85;94.29
58295;BME280;45705;55.592;37.460;2023-10-13T04:46:49;98044.34;;;9.56;97.08
58295;BME280;45705;55.592;37.460;2023-10-13T04:49:14;98049.63;;;9.53;97.90
58295;BME280;45705;55.592;37.460;2023-10-13T04:52:02;98051.56;;;9.73;96.16
58295;BME280;45705;55.592;37.460;2023-10-13T04:54:38;98059.38;;;9.45;98.07
58295;BME280;45705;55.592;37.460;2023-10-13T04:59:51;98064.06;;;9.86;96.45
58295;BME280;45705;55.592;37.460;2023-10-13T05:02:30;98067.34;;;10.01;95.98
58295;BME280;45705;55.592;37.460;2023-10-13T05:05:07;98070.38;;;9.78;96.07
58295;BME280;45705;55.592;37.460;2023-10-13T05:07:39;98082.41;;;9.39;97.04
58295;BME280;45705;55.592;37.460;2023-10-13T05:10:23;98089.25;;;9.36;97.90
58295;BME280;45705;55.592;37.460;2023-10-13T05:13:07;98097.44;;;9.66;97.24
58295;BME280;45705;55.592;37.460;2023-10-13T05:15:51;98095.97;;;9.39;98.36
58295;BME280;45705;55.592;37.460;2023-10-13T05:18:35;98099.78;;;9.46;98.46
58295;BME280;45705;55.592;37.460;2023-10-13T05:21:20;98108.00;;;9.20;99.55
58295;BME280;45705;55.592;37.460;2023-10-13T05:24:04;98109.22;;;9.40;99.18
58295;BME280;45705;55.592;37.460;2023-10-13T05:26:48;98108.25;;;9.36;98.26
58295;BME280;45705;55.592;37.460;2023-10-13T05:29:32;98114.81;;;9.35;99.73
58295;BME280;45705;55.592;37.460;2023-10-13T05:32:16;98126.03;;;9.25;98.15
58295;BME280;45705;55.592;37.460;2023-10-13T05:35:00;98114.09;;;9.56;97.33
58295;BME280;45705;55.592;37.460;2023-10-13T05:37:44;98135.09;;;9.29;98.67
58295;BME280;45705;55.592;37.460;2023-10-13T05:40:28;98130.38;;;9.09;99.89
58295;BME280;45705;55.592;37.460;2023-10-13T05:43:12;98143.88;;;9.26;99.38
58295;BME280;45705;55.592;37.460;2023-10-13T05:46:00;98138.81;;;9.16;100.00
58295;BME280;45705;55.592;37.460;2023-10-13T05:48:45;98141.00;;;9.31;98.81
58295;BME280;45705;55.592;37.460;2023-10-13T05:54:09;98148.38;;;9.22;100.00
58295;BME280;45705;55.592;37.460;2023-10-13T05:56:42;98154.03;;;9.46;97.75
58295;BME280;45705;55.592;37.460;2023-10-13T05:59:27;98161.97;;;9.13;99.81
58295;BME280;45705;55.592;37.460;2023-10-13T06:02:12;98160.88;;;9.05;100.00
58295;BME280;45705;55.592;37.460;2023-10-13T06:04:56;98166.56;;;9.21;99.23
58295;BME280;45705;55.592;37.460;2023-10-13T06:07:40;98166.03;;;9.37;97.57
58295;BME280;45705;55.592;37.460;2023-10-13T06:10:24;98165.56;;;9.26;97.10
58295;BME280;45705;55.592;37.460;2023-10-13T06:13:08;98166.19;;;9.40;95.96
58295;BME280;45705;55.592;37.460;2023-10-13T06:15:52;98175.13;;;9.41;94.71
58295;BME280;45705;55.592;37.460;2023-10-13T06:18:36;98181.16;;;9.46;93.95
58295;BME280;45705;55.592;37.460;2023-10-13T06:21:20;98179.84;;;9.53;94.07
58295;BME280;45705;55.592;37.460;2023-10-13T06:24:05;98178.56;;;9.59;93.11
58295;BME280;45705;55.592;37.460;2023-10-13T06:26:49;98190.88;;;9.56;92.84
58295;BME280;45705;55.592;37.460;2023-10-13T06:29:33;98181.94;;;9.56;91.28
58295;BME280;45705;55.592;37.460;2023-10-13T06:31:58;98195.78;;;9.63;91.87
58295;BME280;45705;55.592;37.460;2023-10-13T06:34:30;98175.38;;;9.57;90.13
58295;BME280;45705;55.592;37.460;2023-10-13T06:37:25;98200.72;;;9.70;88.62
58295;BME280;45705;55.592;37.460;2023-10-13T06:39:52;98202.75;;;9.25;92.16
58295;BME280;45705;55.592;37.460;2023-10-13T06:42:27;98211.59;;;9.61;92.88
58295;BME280;45705;55.592;37.460;2023-10-13T06:44:53;98216.00;;;9.27;97.08
58295;BME280;45705;55.592;37.460;2023-10-13T06:47:20;98226.25;;;10.07;94.38
58295;BME280;45705;55.592;37.460;2023-10-13T06:49:47;98230.56;;;10.08;91.16
58295;BME280;45705;55.592;37.460;2023-10-13T06:52:17;98229.44;;;10.09;92.08
58295;BME280;45705;55.592;37.460;2023-10-13T06:54:42;98238.44;;;10.01;92.96
58295;BME280;45705;55.592;37.460;2023-10-13T06:57:08;98244.22;;;9.91;94.17
58295;BME280;45705;55.592;37.460;2023-10-13T06:59:42;98244.28;;;9.73;94.12
58295;BME280;45705;55.592;37.460;2023-10-13T07:02:08;98246.66;;;9.75;95.32
58295;BME280;45705;55.592;37.460;2023-10-13T07:04:37;98246.97;;;10.20;92.97
58295;BME280;45705;55.592;37.460;2023-10-13T07:07:05;98264.34;;;9.90;93.12
58295;BME280;45705;55.592;37.460;2023-10-13T07:09:31;98267.75;;;9.69;92.84
58295;BME280;45705;55.592;37.460;2023-10-13T07:12:00;98264.97;;;9.86;92.65
58295;BME280;45705;55.592;37.460;2023-10-13T07:14:29;98269.47;;;9.82;93.05
58295;BME280;45705;55.592;37.460;2023-10-13T07:17:02;98281.94;;;9.83;91.43
58295;BME280;45705;55.592;37.460;2023-10-13T07:19:29;98272.00;;;10.35;88.18
58295;BME280;45705;55.592;37.460;2023-10-13T07:21:55;98277.69;;;10.93;82.96
58295;BME280;45705;55.592;37.460;2023-10-13T07:24:27;98278.72;;;10.29;82.19
58295;BME280;45705;55.592;37.460;2023-10-13T07:26:58;98288.41;;;10.47;79.41
58295;BME280;45705;55.592;37.460;2023-10-13T07:29:31;98283.22;;;10.54;77.38
58295;BME280;45705;55.592;37.460;2023-10-13T07:32:02;98291.00;;;10.35;74.83
58295;BME280;45705;55.592;37.460;2023-10-13T07:34:28;98286.84;;;9.90;76.06
58295;BME280;45705;55.592;37.460;2023-10-13T07:36:57;98290.84;;;9.93;76.13
58295;BME280;45705;55.592;37.460;2023-10-13T07:39:29;98288.88;;;10.02;73.02
58295;BME280;45705;55.592;37.460;2023-10-13T07:42:04;98306.13;;;10.06;71.43
58295;BME280;45705;55.592;37.460;2023-10-13T07:44:30;98298.75;;;10.15;70.39
58295;BME280;45705;55.592;37.460;2023-10-13T07:47:02;98308.59;;;10.29;70.26
58295;BME280;45705;55.592;37.460;2023-10-13T07:49:30;98303.94;;;10.29;66.86
58295;BME280;45705;55.592;37.460;2023-10-13T07:51:59;98311.00;;;10.21;66.99
58295;BME280;45705;55.592;37.460;2023-10-13T07:54:44;98311.16;;;10.34;67.10
58295;BME280;45705;55.592;37.460;2023-10-13T07:57:21;98319.16;;;10.21;66.85
58295;BME280;45705;55.592;37.460;2023-10-13T07:59:54;98319.78;;;10.36;66.08
58295;BME280;45705;55.592;37.460;2023-10-13T08:02:37;98324.84;;;10.46;66.03
58295;BME280;45705;55.592;37.460;2023-10-13T08:05:15;98328.88;;;10.70;65.18
58295;BME280;45705;55.592;37.460;2023-10-13T08:08:05;98334.19;;;10.87;65.02
58295;BME280;45705;55.592;37.460;2023-10-13T08:10:39;98338.06;;;10.86;64.97
58295;BME280;45705;55.592;37.460;2023-10-13T08:13:07;98342.84;;;10.59;64.05
58295;BME280;45705;55.592;37.460;2023-10-13T08:15:40;98340.69;;;10.44;64.34
58295;BME280;45705;55.592;37.460;2023-10-13T08:18:05;98355.19;;;10.57;63.13
58295;BME280;45705;55.592;37.460;2023-10-13T08:20:39;98361.31;;;10.75;62.26
58295;BME280;45705;55.592;37.460;2023-10-13T08:23:05;98359.59;;;10.70;62.50
58295;BME280;45705;55.592;37.460;2023-10-13T08:25:40;98375.16;;;10.52;61.08
58295;BME280;45705;55.592;37.460;2023-10-13T08:28:38;98381.28;;;10.79;59.31
58295;BME280;45705;55.592;37.460;2023-10-13T08:31:04;98384.56;;;10.63;59.80
58295;BME280;45705;55.592;37.460;2023-10-13T08:33:48;98397.13;;;10.77;58.87
58295;BME280;45705;55.592;37.460;2023-10-13T08:36:13;98392.34;;;10.74;59.15
58295;BME280;45705;55.592;37.460;2023-10-13T08:38:55;98390.38;;;10.83;57.88
58295;BME280;45705;55.592;37.460;2023-10-13T08:41:21;98394.59;;;10.72;58.10
58295;BME280;45705;55.592;37.460;2023-10-13T08:43:47;98401.91;;;11.10;57.59
58295;BME280;45705;55.592;37.460;2023-10-13T08:46:19;98403.13;;;11.21;56.39
58295;BME280;45705;55.592;37.460;2023-10-13T08:48:56;98417.16;;;11.02;56.57
58295;BME280;45705;55.592;37.460;2023-10-13T08:51:40;98425.91;;;11.08;56.04
58295;BME280;45705;55.592;37.460;2023-10-13T08:54:29;98412.31;;;11.08;55.55
58295;BME280;45705;55.592;37.460;2023-10-13T08:57:04;98418.63;;;10.99;55.72
58295;BME280;45705;55.592;37.460;2023-10-13T08:59:55;98432.03;;;11.26;54.61
58295;BME280;45705;55.592;37.460;2023-10-13T09:02:21;98421.13;;;11.34;54.38
58295;BME280;45705;55.592;37.460;2023-10-13T09:04:49;98426.03;;;11.62;54.24
58295;BME280;45705;55.592;37.460;2023-10-13T09:07:25;98427.53;;;11.51;54.60
58295;BME280;45705;55.592;37.460;2023-10-13T09:09:51;98430.44;;;11.46;54.67
58295;BME280;45705;55.592;37.460;2023-10-13T09:12:35;98436.00;;;11.28;54.79
58295;BME280;45705;55.592;37.460;2023-10-13T09:15:01;98423.91;;;11.47;54.52
58295;BME280;45705;55.592;37.460;2023-10-13T09:17:49;98443.09;;;11.71;54.67
58295;BME280;45705;55.592;37.460;2023-10-13T09:20:29;98451.06;;;11.97;53.60
58295;BME280;45705;55.592;37.460;2023-10-13T09:23:16;98455.97;;;12.04;52.74
58295;BME280;45705;55.592;37.460;2023-10-13T09:25:52;98457.22;;;11.86;53.22
58295;BME280;45705;55.592;37.460;2023-10-13T09:28:34;98448.31;;;11.76;53.45
58295;BME280;45705;55.592;37.460;2023-10-13T09:31:02;98454.50;;;11.86;52.93
58295;BME280;45705;55.592;37.460;2023-10-13T09:33:28;98458.75;;;11.74;52.97
58295;BME280;45705;55.592;37.460;2023-10-13T09:36:15;98467.13;;;11.69;53.42
58295;BME280;45705;55.592;37.460;2023-10-13T09:38:42;98474.19;;;11.91;52.75
58295;BME280;45705;55.592;37.460;2023-10-13T09:41:27;98474.56;;;11.60;52.91
58295;BME280;45705;55.592;37.460;2023-10-13T09:43:57;98488.47;;;11.37;53.31
58295;BME280;45705;55.592;37.460;2023-10-13T09:46:25;98494.22;;;11.66;52.75
58295;BME280;45705;55.592;37.460;2023-10-13T09:49:03;98491.69;;;11.81;52.51
58295;BME280;45705;55.592;37.460;2023-10-13T09:51:33;98489.50;;;11.96;52.84
58295;BME280;45705;55.592;37.460;2023-10-13T09:54:18;98496.84;;;12.04;52.97
58295;BME280;45705;55.592;37.460;2023-10-13T09:56:50;98505.13;;;12.08;52.58
58295;BME280;45705;55.592;37.460;2023-10-13T09:59:22;98512.50;;;12.07;52.92
58295;BME280;45705;55.592;37.460;2023-10-13T10:01:50;98505.66;;;12.01;52.12
58295;BME280;45705;55.592;37.460;2023-10-13T10:04:17;98503.25;;;11.78;52.60
58295;BME280;45705;55.592;37.460;2023-10-13T10:09:25;98506.28;;;12.07;51.85
58295;BME280;45705;55.592;37.460;2023-10-13T10:17:29;98525.25;;;11.73;51.59
58295;BME280;45705;55.592;37.460;2023-10-13T10:19:58;98533.56;;;11.98;51.33
58295;BME280;45705;55.592;37.460;2023-10-13T10:22:30;98534.06;;;11.70;51.83
58295;BME280;45705;55.592;37.460;2023-10-13T10:25:05;98537.25;;;11.72;52.20
58295;BME280;45705;55.592;37.460;2023-10-13T10:27:55;98533.88;;;11.75;52.00
58295;BME280;45705;55.592;37.460;2023-10-13T10:30:28;98540.44;;;11.74;52.53
58295;BME280;45705;55.592;37.460;2023-10-13T10:32:54;98537.03;;;11.56;52.73
58295;BME280;45705;55.592;37.460;2023-10-13T10:35:24;98548.53;;;11.62;52.84
58295;BME280;45705;55.592;37.460;2023-10-13T10:38:14;98547.31;;;11.51;53.57
58295;BME280;45705;55.592;37.460;2023-10-13T10:43:17;98554.38;;;11.52;53.60
58295;BME280;45705;55.592;37.460;2023-10-13T10:45:47;98557.06;;;11.81;53.19
58295;BME280;45705;55.592;37.460;2023-10-13T10:48:14;98557.06;;;11.81;53.36
58295;BME280;45705;55.592;37.460;2023-10-13T10:50:44;98563.28;;;11.91;53.08
58295;BME280;45705;55.592;37.460;2023-10-13T10:53:10;98557.38;;;12.10;52.24
58295;BME280;45705;55.592;37.460;2023-10-13T10:55:38;98561.06;;;12.47;52.16
58295;BME280;45705;55.592;37.460;2023-10-13T10:58:04;98561.06;;;12.47;51.21
58295;BME280;45705;55.592;37.460;2023-10-13T11:00:48;98569.22;;;12.35;51.06
58295;BME280;45705;55.592;37.460;2023-10-13T11:03:15;98582.84;;;12.35;50.83
58295;BME280;45705;55.592;37.460;2023-10-13T11:05:45;98592.59;;;12.36;50.66
58295;BME280;45705;55.592;37.460;2023-10-13T11:08:21;98592.31;;;12.50;50.21
58295;BME280;45705;55.592;37.460;2023-10-13T11:10:53;98591.25;;;12.21;50.62
58295;BME280;45705;55.592;37.460;2023-10-13T11:13:18;98596.38;;;12.23;50.48
58295;BME280;45705;55.592;37.460;2023-10-13T11:15:47;98592.41;;;12.20;50.35
58295;BME280;45705;55.592;37.460;2023-10-13T11:18:13;98594.72;;;12.09;50.51
58295;BME280;45705;55.592;37.460;2023-10-13T11:20:47;98599.09;;;12.01;50.89
58295;BME280;45705;55.592;37.460;2023-10-13T11:23:15;98604.56;;;12.23;50.30
58295;BME280;45705;55.592;37.460;2023-10-13T11:25:40;98600.56;;;12.41;50.21
58295;BME280;45705;55.592;37.460;2023-10-13T11:28:16;98613.78;;;12.51;49.58
58295;BME280;45705;55.592;37.460;2023-10-13T11:30:54;98609.94;;;12.52;49.62
58295;BME280;45705;55.592;37.460;2023-10-13T11:33:36;98605.53;;;12.60;49.34
58295;BME280;45705;55.592;37.460;2023-10-13T11:36:02;98617.63;;;12.50;49.72
58295;BME280;45705;55.592;37.460;2023-10-13T11:38:29;98608.75;;;12.41;50.14
58295;BME280;45705;55.592;37.460;2023-10-13T11:41:07;98617.13;;;12.36;49.33
58295;BME280;45705;55.592;37.460;2023-10-13T11:43:50;98625.97;;;12.33;49.10
58295;BME280;45705;55.592;37.460;2023-10-13T11:46:17;98626.38;;;12.23;48.24
58295;BME280;45705;55.592;37.460;2023-10-13T11:49:10;98634.34;;;12.28;48.64
58295;BME280;45705;55.592;37.460;2023-10-13T11:51:42;98641.53;;;12.32;48.82
58295;BME280;45705;55.592;37.460;2023-10-13T11:54:11;98635.56;;;12.39;48.89
58295;BME280;45705;55.592;37.460;2023-10-13T11:56:36;98634.25;;;12.15;49.23
58295;BME280;45705;55.592;37.460;2023-10-13T11:59:04;98640.91;;;12.27;49.35
58295;BME280;45705;55.592;37.460;2023-10-13T12:01:31;98637.00;;;12.36;48.85
58295;BME280;45705;55.592;37.460;2023-10-13T12:04:15;98643.91;;;12.13;49.74
58295;BME280;45705;55.592;37.460;2023-10-13T12:06:58;98640.84;;;12.14;50.18
58295;BME280;45705;55.592;37.460;2023-10-13T12:09:45;98635.13;;;12.07;50.59
58295;BME280;45705;55.592;37.460;2023-10-13T12:12:37;98630.41;;;12.16;50.28
58295;BME280;45705;55.592;37.460;2023-10-13T12:15:08;98637.94;;;12.19;50.30
58295;BME280;45705;55.592;37.460;2023-10-13T12:17:50;98625.97;;;12.12;50.03
58295;BME280;45705;55.592;37.460;2023-10-13T12:20:16;98634.00;;;12.08;49.64
58295;BME280;45705;55.592;37.460;2023-10-13T12:22:58;98639.25;;;12.13;49.28
58295;BME280;45705;55.592;37.460;2023-10-13T12:25:27;98638.06;;;12.02;49.07
58295;BME280;45705;55.592;37.460;2023-10-13T12:27:58;98646.25;;;12.02;48.86
58295;BME280;45705;55.592;37.460;2023-10-13T12:30:31;98643.22;;;11.95;48.96
58295;BME280;45705;55.592;37.460;2023-10-13T12:33:17;98647.75;;;11.91;48.71
58295;BME280;45705;55.592;37.460;2023-10-13T12:35:56;98650.72;;;11.98;49.00
58295;BME280;45705;55.592;37.460;2023-10-13T12:38:40;98651.88;;;11.97;49.33
58295;BME280;45705;55.592;37.460;2023-10-13T12:41:12;98648.00;;;11.98;49.92
58295;BME280;45705;55.592;37.460;2023-10-13T12:43:56;98657.31;;;11.97;49.99
58295;BME280;45705;55.592;37.460;2023-10-13T12:46:40;98657.97;;;11.94;50.32
58295;BME280;45705;55.592;37.460;2023-10-13T12:49:23;98656.75;;;12.12;50.29
58295;BME280;45705;55.592;37.460;2023-10-13T12:52:24;98657.84;;;12.11;50.79
58295;BME280;45705;55.592;37.460;2023-10-13T12:54:57;98650.69;;;12.07;49.24
58295;BME280;45705;55.592;37.460;2023-10-13T12:57:26;98659.56;;;11.95;49.29
58295;BME280;45705;55.592;37.460;2023-10-13T12:59:52;98664.69;;;11.88;49.30
58295;BME280;45705;55.592;37.460;2023-10-13T13:02:20;98666.97;;;11.94;48.88
58295;BME280;45705;55.592;37.460;2023-10-13T13:04:45;98669.53;;;11.91;49.10
58295;BME280;45705;55.592;37.460;2023-10-13T13:07:13;98668.22;;;11.97;49.11
58295;BME280;45705;55.592;37.460;2023-10-13T13:09:42;98671.84;;;12.10;48.98
58295;BME280;45705;55.592;37.460;2023-10-13T13:12:08;98667.06;;;12.70;47.65
58295;BME280;45705;55.592;37.460;2023-10-13T13:14:35;98677.56;;;12.38;48.82
58295;BME280;45705;55.592;37.460;2023-10-13T13:17:01;98688.19;;;12.31;48.62
58295;BME280;45705;55.592;37.460;2023-10-13T13:19:33;98684.38;;;12.02;49.27
58295;BME280;45705;55.592;37.460;2023-10-13T13:22:04;98688.88;;;11.98;49.39
58295;BME280;45705;55.592;37.460;2023-10-13T13:24:33;98688.41;;;11.96;49.69
58295;BME280;45705;55.592;37.460;2023-10-13T13:26:58;98690.66;;;12.66;48.67
58295;BME280;45705;55.592;37.460;2023-10-13T13:29:30;98691.06;;;12.55;48.00
58295;BME280;45705;55.592;37.460;2023-10-13T13:31:56;98703.25;;;12.07;48.68
58295;BME280;45705;55.592;37.460;2023-10-13T13:34:21;98707.50;;;11.87;48.99
58295;BME280;45705;55.592;37.460;2023-10-13T13:36:47;98708.97;;;11.76;49.55
58295;BME280;45705;55.592;37.460;2023-10-13T13:39:20;98707.03;;;11.76;49.86
58295;BME280;45705;55.592;37.460;2023-10-13T13:41:55;98712.88;;;11.66;49.96
58295;BME280;45705;55.592;37.460;2023-10-13T13:44:25;98720.19;;;11.74;50.44
58295;BME280;45705;55.592;37.460;2023-10-13T13:47:01;98724.41;;;11.63;50.80
58295;BME280;45705;55.592;37.460;2023-10-13T13:49:30;98723.75;;;11.66;50.99